createdAt,value
2018-03-08T00:02:17.386Z,32.63
2018-03-08T00:04:45.845Z,32.63
2018-03-08T00:07:14.312Z,30.50
2018-03-08T00:09:42.814Z,32.20
2018-03-08T00:12:11.314Z,35.30
2018-03-08T00:14:39.817Z,32.67
2018-03-08T00:17:08.284Z,32.57
2018-03-08T00:19:36.786Z,30.17
2018-03-08T00:22:05.286Z,30.00
2018-03-08T00:24:33.799Z,30.17
2018-03-08T00:27:02.306Z,29.90
2018-03-08T00:29:30.768Z,26.07
2018-03-08T00:31:59.266Z,25.63
2018-03-08T00:34:27.732Z,25.23
2018-03-08T00:36:56.247Z,26.40
2018-03-08T00:39:24.750Z,25.70
2018-03-08T00:41:53.234Z,24.83
2018-03-08T00:44:21.691Z,24.47
2018-03-08T00:46:50.189Z,27.50
2018-03-08T00:49:18.661Z,28.60
2018-03-08T00:51:47.162Z,30.33
2018-03-08T00:54:15.677Z,28.97
2018-03-08T00:56:44.156Z,29.57
2018-03-08T00:59:12.677Z,28.33
2018-03-08T01:01:41.172Z,27.73
2018-03-08T01:04:09.645Z,29.23
2018-03-08T01:06:38.154Z,28.57
2018-03-08T01:09:06.614Z,27.63
2018-03-08T01:11:35.083Z,27.50
2018-03-08T01:14:03.586Z,29.33
2018-03-08T01:16:32.075Z,30.43
2018-03-08T01:19:00.569Z,32.37
2018-03-08T01:21:29.104Z,34.37
2018-03-08T01:23:57.569Z,32.23
2018-03-08T01:26:26.031Z,34.23
2018-03-08T01:28:54.516Z,33.57
2018-03-08T01:31:22.974Z,33.90
2018-03-08T01:33:51.478Z,30.67
2018-03-08T01:36:27.797Z,29.90
2018-03-08T01:38:56.294Z,30.03
2018-03-08T01:41:24.774Z,33.57
2018-03-08T01:43:53.306Z,34.97
2018-03-08T01:46:21.830Z,34.77
2018-03-08T01:48:50.321Z,33.73
2018-03-08T01:51:18.788Z,32.80
2018-03-08T01:53:47.296Z,33.70
2018-03-08T01:56:15.800Z,32.93
2018-03-08T01:58:44.244Z,34.67
2018-03-08T02:01:12.769Z,33.47
2018-03-08T02:03:41.266Z,33.27
2018-03-08T02:06:09.764Z,34.13
2018-03-08T02:08:38.226Z,35.93
2018-03-08T02:11:06.745Z,32.67
2018-03-08T02:13:35.211Z,34.43
2018-03-08T02:16:03.777Z,35.40
2018-03-08T02:18:32.255Z,34.93
2018-03-08T02:21:00.737Z,37.13
2018-03-08T02:23:29.226Z,36.47
2018-03-08T02:25:57.691Z,33.53
2018-03-08T02:28:26.220Z,34.90
2018-03-08T02:30:54.692Z,33.40
2018-03-08T02:33:23.211Z,32.63
2018-03-08T02:35:51.710Z,33.20
2018-03-08T02:38:20.203Z,30.33
2018-03-08T02:40:48.718Z,32.63
2018-03-08T02:43:17.178Z,31.10
2018-03-08T02:45:45.637Z,30.60
2018-03-08T02:48:14.167Z,32.80
2018-03-08T02:50:42.674Z,30.00
2018-03-08T02:53:11.166Z,31.20
2018-03-08T02:55:39.673Z,30.50
2018-03-08T02:58:08.163Z,29.47
2018-03-08T03:00:36.665Z,29.53
2018-03-08T03:03:05.183Z,29.30
2018-03-08T03:05:33.666Z,29.00
2018-03-08T03:08:02.150Z,29.63
2018-03-08T03:10:30.651Z,31.27
2018-03-08T03:12:59.158Z,36.20
2018-03-08T03:15:27.668Z,35.13
2018-03-08T03:17:56.144Z,36.53
2018-03-08T03:20:24.606Z,34.80
2018-03-08T03:22:53.113Z,36.37
2018-03-08T03:25:21.660Z,37.20
2018-03-08T03:27:50.165Z,38.47
2018-03-08T03:30:18.671Z,38.27
2018-03-08T03:32:47.159Z,40.73
2018-03-08T03:35:15.625Z,38.67
2018-03-08T03:37:44.124Z,40.77
2018-03-08T03:40:12.594Z,40.90
2018-03-08T03:42:41.095Z,38.80
2018-03-08T03:45:09.562Z,38.33
2018-03-08T03:47:38.027Z,40.63
2018-03-08T03:50:06.522Z,41.07
2018-03-08T03:52:34.981Z,39.73
2018-03-08T03:55:03.482Z,39.60
2018-03-08T03:57:32.014Z,38.27
2018-03-08T04:00:00.479Z,38.97
2018-03-08T04:02:28.951Z,41.23
2018-03-08T04:04:57.472Z,37.87
2018-03-08T04:07:25.939Z,41.97
2018-03-08T04:09:54.438Z,42.80
2018-03-08T04:12:22.908Z,42.60
2018-03-08T04:14:51.409Z,42.80
2018-03-08T04:17:19.875Z,44.47
2018-03-08T04:19:48.374Z,42.03
2018-03-08T04:22:16.882Z,43.50
2018-03-08T04:24:45.341Z,42.20
2018-03-08T04:27:13.806Z,41.70
2018-03-08T04:29:42.298Z,43.20
2018-03-08T04:32:10.758Z,41.20
2018-03-08T04:34:39.261Z,41.83
2018-03-08T04:37:07.757Z,43.93
2018-03-08T04:39:36.273Z,42.20
2018-03-08T04:42:04.784Z,43.33
2018-03-08T04:44:33.302Z,44.33
2018-03-08T04:47:01.771Z,41.97
2018-03-08T04:49:30.249Z,43.13
2018-03-08T04:51:58.753Z,42.67
2018-03-08T04:54:27.220Z,41.03
2018-03-08T04:56:55.730Z,43.07
2018-03-08T04:59:24.262Z,44.90
2018-03-08T05:01:52.746Z,44.33
2018-03-08T05:04:21.246Z,45.63
2018-03-08T05:06:49.710Z,45.70
2018-03-08T05:09:18.210Z,45.23
2018-03-08T05:11:46.670Z,45.07
2018-03-08T05:14:15.207Z,46.57
2018-03-08T05:16:43.662Z,44.23
2018-03-08T05:19:12.158Z,43.43
2018-03-08T05:21:40.626Z,44.13
2018-03-08T05:24:09.082Z,42.67
2018-03-08T05:26:37.582Z,39.77
2018-03-08T05:29:06.055Z,40.20
2018-03-08T05:31:34.571Z,40.27
2018-03-08T05:34:03.071Z,38.73
2018-03-08T05:36:31.570Z,39.33
2018-03-08T05:39:00.074Z,37.57
2018-03-08T05:41:28.574Z,40.17
2018-03-08T05:43:57.041Z,39.57
2018-03-08T05:46:25.565Z,38.27
2018-03-08T05:48:54.044Z,38.13
2018-03-08T05:51:22.512Z,35.40
2018-03-08T05:53:51.026Z,36.87
2018-03-08T05:56:19.486Z,41.13
2018-03-08T05:58:48.036Z,46.73
2018-03-08T06:01:21.366Z,46.20
2018-03-08T06:03:49.867Z,47.27
2018-03-08T06:06:18.340Z,46.33
2018-03-08T06:08:46.798Z,46.73
2018-03-08T06:11:15.256Z,46.60
2018-03-08T06:13:43.758Z,50.63
2018-03-08T06:16:12.254Z,48.97
2018-03-08T06:18:40.748Z,47.47
2018-03-08T06:21:09.255Z,48.13
2018-03-08T06:23:37.740Z,46.07
2018-03-08T06:26:06.283Z,48.03
2018-03-08T06:28:34.733Z,46.63
2018-03-08T06:31:03.226Z,48.03
2018-03-08T06:33:31.738Z,48.47
2018-03-08T06:36:00.214Z,48.33
2018-03-08T06:38:28.730Z,50.63
2018-03-08T06:40:57.219Z,55.50
2018-03-08T06:43:25.729Z,51.47
2018-03-08T06:45:54.226Z,47.37
2018-03-08T06:48:22.739Z,46.50
2018-03-08T06:50:51.290Z,48.00
2018-03-08T06:53:19.773Z,45.40
2018-03-08T06:55:48.270Z,45.43
2018-03-08T06:58:16.871Z,44.70
2018-03-08T07:00:45.374Z,44.97
2018-03-08T07:03:13.902Z,42.47
2018-03-08T07:05:42.987Z,43.43
2018-03-08T07:08:11.487Z,43.67
2018-03-08T07:10:40.588Z,42.73
2018-03-08T07:13:09.183Z,43.20
2018-03-08T07:15:37.664Z,41.70
2018-03-08T07:18:06.155Z,47.07
2018-03-08T07:20:34.689Z,45.03
2018-03-08T07:23:03.234Z,44.60
2018-03-08T07:25:31.751Z,43.80
2018-03-08T07:28:00.266Z,41.43
2018-03-08T07:30:28.742Z,43.00
2018-03-08T07:32:57.286Z,41.77
2018-03-08T07:35:25.750Z,42.83
2018-03-08T07:37:54.258Z,41.73
2018-03-08T07:40:22.746Z,41.73
2018-03-08T07:42:51.250Z,40.67
2018-03-08T07:45:19.730Z,38.73
2018-03-08T07:47:48.228Z,38.67
2018-03-08T07:50:16.712Z,34.83
2018-03-08T07:52:45.178Z,36.43
2018-03-08T07:55:13.707Z,33.13
2018-03-08T07:57:42.171Z,30.27
2018-03-08T08:00:10.655Z,31.67
2018-03-08T08:02:39.158Z,31.07
2018-03-08T08:05:19.394Z,32.33
2018-03-08T08:07:59.534Z,29.43
2018-03-08T08:10:28.070Z,29.97
2018-03-08T08:12:56.599Z,24.93
2018-03-08T08:15:25.102Z,24.50
2018-03-08T08:17:53.837Z,29.30
2018-03-08T08:20:22.442Z,27.07
2018-03-08T08:22:50.925Z,25.60
2018-03-08T08:25:19.394Z,24.90
2018-03-08T08:27:47.923Z,21.97
2018-03-08T08:30:16.394Z,21.10
2018-03-08T08:32:44.898Z,14.70
2018-03-08T08:35:13.367Z,13.57
2018-03-08T08:37:41.989Z,14.23
2018-03-08T08:40:10.526Z,14.43
2018-03-08T08:42:39.046Z,12.00
2018-03-08T08:45:07.537Z,11.63
2018-03-08T08:47:36.060Z,13.40
2018-03-08T08:50:04.642Z,14.37
2018-03-08T08:52:33.108Z,12.50
2018-03-08T12:05:29.954Z,9.40
2018-03-08T12:08:04.994Z,9.03
2018-03-08T12:10:33.495Z,9.27
2018-03-08T12:13:02.196Z,8.37
2018-03-08T12:15:30.726Z,8.83
2018-03-08T12:17:59.249Z,8.67
2018-03-08T12:20:27.687Z,9.40
2018-03-08T12:22:56.207Z,8.43
2018-03-08T12:25:24.723Z,8.93
2018-03-08T12:27:53.250Z,8.83
2018-03-08T12:30:21.706Z,8.87
2018-03-08T12:32:50.194Z,10.03
2018-03-08T12:35:18.738Z,10.03
2018-03-08T12:37:47.206Z,10.90
2018-03-08T12:40:15.736Z,10.50
2018-03-08T12:42:44.235Z,11.40
2018-03-08T12:45:12.705Z,10.57
2018-03-08T12:47:41.236Z,11.30
2018-03-08T12:50:09.706Z,10.50
2018-03-08T12:52:38.196Z,10.63
2018-03-08T12:55:06.720Z,10.67
2018-03-08T12:57:35.233Z,10.47
2018-03-08T13:00:03.754Z,10.90
2018-03-08T13:02:32.297Z,10.07
2018-03-08T13:05:00.793Z,7.90
2018-03-08T13:07:29.276Z,9.30
2018-03-08T13:09:57.787Z,8.47
2018-03-08T13:12:26.242Z,9.57
2018-03-08T13:14:54.738Z,10.33
2018-03-08T13:17:23.254Z,8.80
2018-03-08T13:19:51.730Z,10.10
2018-03-08T13:22:20.258Z,9.63
2018-03-08T13:24:48.758Z,8.33
2018-03-08T13:27:17.286Z,7.63
2018-03-08T13:29:45.784Z,7.97
2018-03-08T13:32:14.259Z,8.60
2018-03-08T13:34:42.762Z,8.77
2018-03-08T13:37:11.262Z,7.13
2018-03-08T13:39:39.794Z,6.07
2018-03-08T13:42:08.279Z,6.73
2018-03-08T13:44:36.781Z,6.93
2018-03-08T13:47:05.243Z,7.07
2018-03-08T13:49:36.742Z,7.30
2018-03-08T13:52:05.266Z,7.67
2018-03-08T13:54:33.730Z,8.10
2018-03-08T13:57:02.246Z,7.97
2018-03-08T13:59:30.732Z,7.43
2018-03-08T14:01:59.234Z,8.73
2018-03-08T14:04:27.707Z,9.23
2018-03-08T14:06:56.206Z,8.60
2018-03-08T14:09:24.715Z,8.90
2018-03-08T14:11:53.230Z,9.07
2018-03-08T14:14:21.750Z,10.60
2018-03-08T14:16:50.271Z,10.23
2018-03-08T14:21:49.909Z,10.27
2018-03-08T14:24:18.439Z,10.93
2018-03-08T14:26:46.924Z,10.80
2018-03-08T14:29:15.399Z,11.10
2018-03-08T14:31:44.093Z,11.57
2018-03-08T14:34:12.603Z,12.40
2018-03-08T14:36:41.061Z,12.70
2018-03-08T14:39:09.570Z,13.07
2018-03-08T14:41:38.119Z,13.43
2018-03-08T14:44:06.619Z,13.30
2018-03-08T14:46:35.147Z,12.97
2018-03-08T14:49:03.663Z,12.60
2018-03-08T14:51:32.130Z,12.30
2018-03-08T14:54:00.741Z,12.47
2018-03-08T14:56:29.289Z,12.00
2018-03-08T14:58:57.806Z,12.77
2018-03-08T15:01:26.389Z,11.27
2018-03-08T15:03:55.078Z,9.80
2018-03-08T15:06:23.594Z,8.60
2018-03-08T15:08:52.147Z,8.47
2018-03-08T15:11:20.623Z,9.53
2018-03-08T15:13:49.309Z,8.70
2018-03-08T15:16:17.893Z,8.70
2018-03-08T15:18:46.402Z,18.00
2018-03-08T15:21:14.841Z,9.00
2018-03-08T15:23:43.362Z,7.77
2018-03-08T15:26:11.870Z,6.93
2018-03-08T15:28:40.394Z,7.73
2018-03-08T15:31:08.847Z,7.93
2018-03-08T15:33:37.338Z,8.13
2018-03-08T15:36:05.910Z,8.43
2018-03-08T15:38:34.388Z,9.00
2018-03-08T15:41:02.842Z,8.63
2018-03-08T15:43:31.334Z,8.83
2018-03-08T15:45:59.879Z,9.60
2018-03-08T15:48:28.386Z,10.03
2018-03-08T15:50:56.890Z,9.73
2018-03-08T15:53:25.426Z,9.87
2018-03-08T15:55:53.889Z,9.47
2018-03-08T15:58:22.565Z,10.50
2018-03-08T16:00:51.031Z,9.10
2018-03-08T16:03:19.546Z,10.07
2018-03-08T16:05:48.047Z,9.23
2018-03-08T16:08:22.147Z,9.27
2018-03-08T16:10:50.683Z,9.70
2018-03-08T16:13:19.223Z,9.53
2018-03-08T16:15:47.730Z,10.37
2018-03-08T16:18:16.245Z,10.23
2018-03-08T16:20:44.779Z,10.53
2018-03-08T16:23:13.248Z,9.83
2018-03-08T16:25:41.762Z,9.63
2018-03-08T16:28:10.259Z,9.50
2018-03-08T16:30:39.424Z,8.97
2018-03-08T16:33:07.890Z,8.03
2018-03-08T16:35:36.404Z,7.60
2018-03-08T16:38:04.923Z,6.97
2018-03-08T16:40:33.399Z,8.33
2018-03-08T16:43:02.229Z,8.10
2018-03-08T16:45:30.698Z,9.33
2018-03-08T16:47:59.154Z,11.43
2018-03-08T16:50:27.729Z,14.33
2018-03-08T16:52:56.183Z,13.73
2018-03-08T16:55:24.686Z,12.60
2018-03-08T16:57:53.194Z,13.27
2018-03-08T17:00:21.661Z,16.93
2018-03-08T17:02:50.196Z,19.67
2018-03-08T17:05:18.712Z,18.50
2018-03-08T17:07:47.237Z,22.03
2018-03-08T17:10:15.696Z,20.23
2018-03-08T17:12:44.211Z,24.17
2018-03-08T17:15:12.682Z,24.17
2018-03-08T17:17:41.187Z,24.27
2018-03-08T17:20:09.704Z,24.37
2018-03-08T17:22:38.214Z,25.53
2018-03-08T17:25:06.765Z,23.27
2018-03-08T17:27:35.247Z,25.07
2018-03-08T17:30:03.802Z,22.43
2018-03-08T17:32:32.271Z,20.80
2018-03-08T17:35:00.733Z,21.07
2018-03-08T17:37:29.250Z,22.87
2018-03-08T17:39:57.739Z,21.00
2018-03-08T17:42:26.287Z,22.97
2018-03-08T17:44:54.794Z,21.20
2018-03-08T17:47:23.254Z,18.17
2018-03-08T17:49:51.773Z,14.73
2018-03-08T17:52:20.269Z,14.70
2018-03-08T17:54:48.774Z,14.50
2018-03-08T17:57:17.272Z,14.77
2018-03-08T17:59:45.800Z,14.97
2018-03-08T18:02:14.310Z,14.27
2018-03-08T18:04:42.803Z,15.23
2018-03-08T18:07:11.270Z,15.87
2018-03-08T18:09:39.796Z,15.00
2018-03-08T18:12:08.273Z,13.87
2018-03-08T18:14:36.746Z,14.20
2018-03-08T18:17:05.274Z,13.90
2018-03-08T18:19:33.742Z,12.93
2018-03-08T18:22:02.352Z,12.60
2018-03-08T18:24:30.829Z,12.43
2018-03-08T18:26:59.285Z,9.50
2018-03-08T18:29:27.813Z,8.43
2018-03-08T18:31:56.262Z,9.20
2018-03-08T18:34:24.774Z,7.90
2018-03-08T18:36:53.231Z,8.00
2018-03-08T18:39:21.718Z,8.93
2018-03-08T18:41:50.203Z,7.80
2018-03-08T18:44:18.649Z,6.97
2018-03-08T18:46:47.131Z,7.00
2018-03-08T18:49:15.619Z,7.37
2018-03-08T18:51:44.074Z,7.10
2018-03-08T18:54:12.578Z,7.67
2018-03-08T18:56:41.031Z,6.60
2018-03-08T18:59:09.463Z,6.80
2018-03-08T19:01:37.964Z,7.00
2018-03-08T19:04:06.458Z,6.60
2018-03-08T19:06:34.950Z,7.37
2018-03-08T19:09:03.478Z,8.00
2018-03-08T19:11:31.970Z,7.67
2018-03-08T19:14:00.418Z,8.90
2018-03-08T19:16:28.923Z,9.97
2018-03-08T19:18:57.386Z,10.60
2018-03-08T19:21:25.923Z,10.13
2018-03-08T19:23:54.426Z,10.73
2018-03-08T19:26:22.907Z,10.10
2018-03-08T19:28:51.398Z,9.40
2018-03-08T19:31:19.858Z,9.37
2018-03-08T19:33:48.359Z,9.00
2018-03-08T19:36:16.822Z,9.67
2018-03-08T19:38:45.323Z,9.37
2018-03-08T19:41:13.786Z,9.30
2018-03-08T19:43:42.288Z,8.00
2018-03-08T19:46:10.792Z,7.30
2018-03-08T19:48:39.303Z,6.70
2018-03-08T19:51:07.768Z,6.97
2018-03-08T19:53:36.232Z,6.20
2018-03-08T19:56:04.748Z,5.67
2018-03-08T19:58:33.329Z,5.37
2018-03-08T20:01:01.787Z,4.87
2018-03-08T20:03:30.264Z,5.93
2018-03-08T20:05:58.743Z,6.00
2018-03-08T20:08:27.218Z,5.37
2018-03-08T20:10:55.826Z,5.80
2018-03-08T20:13:24.284Z,5.77
2018-03-08T20:15:52.770Z,5.90
2018-03-08T20:18:21.259Z,5.70
2018-03-08T20:20:49.710Z,5.80
2018-03-08T20:23:18.202Z,5.80
2018-03-08T20:25:46.694Z,6.23
2018-03-08T20:28:15.150Z,6.20
2018-03-08T20:30:43.645Z,6.80
2018-03-08T20:33:12.123Z,6.53
2018-03-08T20:35:40.605Z,6.77
2018-03-08T20:38:09.092Z,6.33
2018-03-08T20:40:37.590Z,5.73
2018-03-08T20:43:06.064Z,6.43
2018-03-08T20:45:34.528Z,6.50
2018-03-08T20:48:03.018Z,5.40
2018-03-08T20:50:31.546Z,5.53
2018-03-08T20:53:00.038Z,4.73
2018-03-08T20:55:28.501Z,5.27
2018-03-08T20:57:56.995Z,4.97
2018-03-08T21:00:25.486Z,5.27
2018-03-08T21:02:53.946Z,4.90
2018-03-08T21:05:22.452Z,4.90
2018-03-08T21:07:50.967Z,4.90
2018-03-08T21:10:19.482Z,4.30
2018-03-08T21:12:47.942Z,5.10
2018-03-08T21:15:16.474Z,4.90
2018-03-08T21:17:44.984Z,5.23
2018-03-08T21:20:13.431Z,5.70
2018-03-08T21:22:41.918Z,6.47
2018-03-08T21:25:10.370Z,7.70
2018-03-08T21:27:38.834Z,7.57
2018-03-08T21:30:07.326Z,7.27
2018-03-08T21:32:35.786Z,6.80
2018-03-08T21:35:04.286Z,5.93
2018-03-08T21:37:32.744Z,5.40
2018-03-08T21:40:01.261Z,5.07
2018-03-08T21:42:29.744Z,5.07
2018-03-08T21:44:58.217Z,4.77
2018-03-08T21:47:26.703Z,4.80
2018-03-08T21:49:55.192Z,4.70
2018-03-08T21:52:23.686Z,4.47
2018-03-08T21:54:52.182Z,4.03
2018-03-08T21:57:20.654Z,4.27
2018-03-08T21:59:49.143Z,4.30
2018-03-08T22:02:17.594Z,3.77
2018-03-08T22:04:46.062Z,3.87
2018-03-08T22:07:14.554Z,4.20
2018-03-08T22:09:43.047Z,4.30
2018-03-08T22:12:11.517Z,3.67
2018-03-08T22:14:39.956Z,4.10
2018-03-08T22:17:08.407Z,4.17
2018-03-08T22:19:36.926Z,4.00
2018-03-08T22:22:05.387Z,4.60
2018-03-08T22:24:33.858Z,4.33
2018-03-08T22:27:02.338Z,4.30
2018-03-08T22:29:30.783Z,4.50
2018-03-08T22:31:59.274Z,4.27
2018-03-08T22:34:27.727Z,4.67
2018-03-08T22:36:56.206Z,4.67
2018-03-08T22:39:24.662Z,4.30
2018-03-08T22:41:53.163Z,4.60
2018-03-08T22:44:21.696Z,4.50
2018-03-08T22:46:50.160Z,4.60
2018-03-08T22:49:18.654Z,4.40
2018-03-08T22:51:47.122Z,4.37
2018-03-08T22:54:15.639Z,4.40
2018-03-08T22:56:44.126Z,4.47
2018-03-08T22:59:12.579Z,4.60
2018-03-08T23:04:53.251Z,4.30
2018-03-08T23:07:21.762Z,4.40
2018-03-08T23:09:50.319Z,3.80
2018-03-08T23:12:18.844Z,4.50
2018-03-08T23:14:47.306Z,4.10
2018-03-08T23:17:15.794Z,3.70
2018-03-08T23:19:44.238Z,4.13
2018-03-08T23:22:12.809Z,4.57
2018-03-08T23:24:41.254Z,3.97
2018-03-08T23:27:09.757Z,4.10
2018-03-08T23:29:38.261Z,4.13
2018-03-08T23:32:06.738Z,4.17
2018-03-08T23:34:35.291Z,4.03
2018-03-08T23:37:03.758Z,3.90
2018-03-08T23:39:32.206Z,4.10
2018-03-08T23:42:00.715Z,4.07
2018-03-08T23:44:29.162Z,3.57
2018-03-08T23:46:57.702Z,3.63
2018-03-08T23:49:26.150Z,3.63
2018-03-08T23:51:54.594Z,3.40
2018-03-08T23:54:23.082Z,3.37
2018-03-08T23:56:51.569Z,3.43
2018-03-08T23:59:20.067Z,3.20
